Time;durP1;ratioP1;P1;durP2;ratioP2;P2;SDS_P1;SDS_P2;PMS_P1;PMS_P2;Temp;Humidity;BMP_temperature;BMP_pressure;BME280_temperature;BME280_humidity;BME280_pressure;Samples;Min_cycle;Max_cycle;Signal;HPM_P1;HPM_P2
2022/11/02 00:01:05;;;;;;;8.60;2.03;;;12.60;99.90;;;;;;4980883;28;20650;-83
2022/11/02 00:03:31;;;;;;;8.63;1.80;;;12.50;99.90;;;;;;4987069;28;20039;-78
2022/11/02 00:05:56;;;;;;;7.13;1.77;;;12.50;99.90;;;;;;4976877;28;20082;-75
2022/11/02 00:08:22;;;;;;;10.32;2.35;;;12.50;99.90;;;;;;4987210;28;20750;-78
2022/11/02 00:10:47;;;;;;;7.45;1.88;;;12.30;99.90;;;;;;4980357;28;20042;-88
2022/11/02 00:13:13;;;;;;;7.57;2.42;;;12.10;99.90;;;;;;4971345;28;20117;-81
2022/11/02 00:15:42;;;;;;;11.57;2.05;;;12.00;99.90;;;;;;4982446;28;20392;-84
2022/11/02 00:18:11;;;;;;;7.15;1.15;;;11.90;99.90;;;;;;4986650;28;20054;-83
2022/11/02 00:20:38;;;;;;;10.80;1.45;;;11.70;99.90;;;;;;4956663;28;20047;-77
2022/11/02 00:23:06;;;;;;;14.95;3.35;;;11.70;99.90;;;;;;4972272;28;20105;-79
2022/11/02 00:25:32;;;;;;;7.65;2.13;;;11.60;99.90;;;;;;4979592;28;20030;-78
2022/11/02 00:27:58;;;;;;;7.70;1.52;;;11.60;99.90;;;;;;4980722;28;20125;-83
2022/11/02 00:30:23;;;;;;;10.02;1.38;;;11.60;99.90;;;;;;4975661;28;20133;-83
2022/11/02 00:32:50;;;;;;;6.43;1.33;;;11.40;99.90;;;;;;4984339;28;20156;-83
2022/11/02 00:35:16;;;;;;;8.07;1.30;;;11.50;99.90;;;;;;4980533;28;20043;-76
2022/11/02 00:37:41;;;;;;;5.47;1.00;;;11.40;99.90;;;;;;4988043;28;20092;-82
2022/11/02 00:40:08;;;;;;;8.63;1.50;;;11.50;99.90;;;;;;4988902;28;20050;-82
2022/11/02 00:42:33;;;;;;;9.35;2.05;;;11.50;99.90;;;;;;4985444;28;20144;-84
2022/11/02 00:44:59;;;;;;;6.72;0.80;;;11.50;99.90;;;;;;4978072;28;20082;-82
2022/11/02 00:47:24;;;;;;;9.82;1.20;;;11.40;99.90;;;;;;4993248;28;20038;-82
2022/11/02 00:49:50;;;;;;;5.80;1.60;;;11.30;99.90;;;;;;4990914;28;20100;-82
2022/11/02 00:52:16;;;;;;;3.95;1.30;;;11.40;99.90;;;;;;4987941;28;20066;-84
2022/11/02 00:54:41;;;;;;;3.83;0.98;;;11.40;99.90;;;;;;4989592;28;20120;-84
2022/11/02 00:57:07;;;;;;;6.85;1.15;;;11.40;99.90;;;;;;4991868;28;20505;-82
2022/11/02 00:59:32;;;;;;;7.75;0.70;;;11.40;99.90;;;;;;4986036;28;20119;-81
2022/11/02 01:01:58;;;;;;;4.65;1.50;;;11.40;99.90;;;;;;4981114;28;20038;-82
2022/11/02 01:04:24;;;;;;;2.53;0.70;;;11.30;99.90;;;;;;4995676;28;20051;-80
2022/11/02 01:06:49;;;;;;;5.85;1.25;;;11.40;99.90;;;;;;4965660;28;20399;-81
2022/11/02 01:09:15;;;;;;;4.20;1.02;;;11.30;99.90;;;;;;4990057;28;20532;-86
2022/11/02 01:11:42;;;;;;;4.28;0.93;;;11.30;99.90;;;;;;4984658;28;20098;-83
2022/11/02 01:14:08;;;;;;;8.38;1.38;;;11.30;99.90;;;;;;4976075;28;20103;-85
2022/11/02 01:16:34;;;;;;;5.05;0.68;;;11.30;99.90;;;;;;4968453;28;20398;-84
2022/11/02 01:19:00;;;;;;;7.90;1.60;;;11.20;99.90;;;;;;4985379;28;20046;-84
2022/11/02 01:21:25;;;;;;;3.25;0.50;;;11.20;99.90;;;;;;4980361;28;20057;-79
2022/11/02 01:23:51;;;;;;;8.68;1.67;;;11.10;99.90;;;;;;4984242;28;20333;-83
2022/11/02 01:26:17;;;;;;;7.95;0.90;;;11.10;99.90;;;;;;4978514;28;20045;-85
2022/11/02 01:28:43;;;;;;;1.27;0.70;;;11.10;99.90;;;;;;4982992;28;20074;-84
2022/11/02 01:31:10;;;;;;;2.63;0.73;;;11.10;99.90;;;;;;4974593;28;20128;-84
2022/11/02 01:33:36;;;;;;;2.38;0.90;;;11.10;99.90;;;;;;4989030;28;20525;-78
2022/11/02 01:36:03;;;;;;;4.90;1.10;;;11.20;99.90;;;;;;4970316;28;20143;-77
2022/11/02 01:38:30;;;;;;;2.83;0.63;;;11.20;99.90;;;;;;4989269;28;20049;-80
2022/11/02 01:40:56;;;;;;;4.03;1.50;;;11.20;99.90;;;;;;4973903;28;20053;-84
2022/11/02 01:43:27;;;;;;;12.43;2.88;;;11.30;99.90;;;;;;4988779;28;20493;-81
2022/11/02 01:46:11;;;;;;;5.93;2.08;;;11.20;99.90;;;;;;4988347;28;20046;-83
2022/11/02 01:48:54;;;;;;;7.43;0.82;;;11.00;99.90;;;;;;4977037;28;20092;-81
2022/11/02 01:51:36;;;;;;;3.13;0.60;;;10.90;99.90;;;;;;4982724;28;20383;-80
2022/11/02 01:54:19;;;;;;;8.23;1.50;;;10.70;99.90;;;;;;4988253;28;20089;-82
2022/11/02 01:56:49;;;;;;;3.75;0.90;;;10.70;99.90;;;;;;4976417;28;20389;-82
2022/11/02 01:59:19;;;;;;;3.53;1.10;;;10.60;99.90;;;;;;4984990;28;20452;-83
2022/11/02 02:01:45;;;;;;;5.40;0.40;;;10.50;99.90;;;;;;4988518;28;20034;-82
2022/11/02 02:04:13;;;;;;;1.05;0.73;;;10.50;99.90;;;;;;4988191;28;20133;-83
2022/11/02 02:06:39;;;;;;;4.88;1.05;;;10.50;99.90;;;;;;4987923;28;20042;-82
2022/11/02 02:09:06;;;;;;;4.25;0.70;;;10.60;99.90;;;;;;4988617;28;20405;-81
2022/11/02 02:11:37;;;;;;;4.03;0.80;;;10.50;99.90;;;;;;4982462;28;20034;-82
2022/11/02 02:14:05;;;;;;;5.78;1.02;;;10.60;99.90;;;;;;5002076;28;20050;-81
2022/11/02 02:16:41;;;;;;;2.08;0.90;;;10.60;99.90;;;;;;4978074;28;20500;-82
2022/11/02 02:19:45;;;;;;;6.97;1.67;;;10.60;99.90;;;;;;4971665;28;20066;-79
2022/11/02 02:22:11;;;;;;;3.92;1.25;;;10.60;99.90;;;;;;4954119;28;20134;-78
2022/11/02 02:25:02;;;;;;;5.60;1.52;;;10.60;99.90;;;;;;4985135;28;20129;-78
2022/11/02 02:27:48;;;;;;;4.32;1.42;;;10.70;99.90;;;;;;4977438;28;20572;-83
2022/11/02 02:30:15;;;;;;;5.38;1.77;;;10.70;99.90;;;;;;4978352;28;20121;-81
2022/11/02 02:32:53;;;;;;;5.22;1.88;;;10.70;99.90;;;;;;4981607;28;20043;-84
2022/11/02 02:35:34;;;;;;;6.07;1.65;;;10.70;99.90;;;;;;4969946;28;20046;-75
2022/11/02 02:38:03;;;;;;;5.13;2.08;;;10.70;99.90;;;;;;4978017;28;20047;-78
2022/11/02 02:40:42;;;;;;;8.98;2.10;;;10.70;99.90;;;;;;4976353;28;20049;-83
2022/11/02 02:43:30;;;;;;;9.05;2.60;;;10.80;99.90;;;;;;4969940;28;20035;-79
2022/11/02 02:46:19;;;;;;;5.90;1.88;;;10.70;99.90;;;;;;4975362;28;20058;-82
2022/11/02 02:48:46;;;;;;;2.58;0.77;;;10.70;99.90;;;;;;4973263;28;20389;-83
2022/11/02 02:51:18;;;;;;;4.05;0.90;;;10.70;99.90;;;;;;4968513;28;20053;-85
2022/11/02 02:53:49;;;;;;;3.67;1.65;;;10.70;99.90;;;;;;4982557;28;20041;-83
2022/11/02 02:56:17;;;;;;;5.10;0.57;;;10.60;99.90;;;;;;4984625;28;20050;-80
2022/11/02 02:58:58;;;;;;;4.13;1.10;;;10.70;99.90;;;;;;4972474;28;20509;-82
2022/11/02 03:01:25;;;;;;;5.40;1.90;;;10.60;99.90;;;;;;4983072;28;20187;-82
2022/11/02 03:03:51;;;;;;;6.20;0.82;;;10.50;99.90;;;;;;4986070;28;20042;-81
2022/11/02 03:06:28;;;;;;;3.40;0.50;;;10.40;99.90;;;;;;4984427;28;20049;-84
2022/11/02 03:09:26;;;;;;;3.22;0.65;;;10.50;99.90;;;;;;4968758;28;20062;-81
2022/11/02 03:12:14;;;;;;;2.38;0.28;;;10.40;99.90;;;;;;4964724;28;20445;-76
2022/11/02 03:14:44;;;;;;;4.43;0.45;;;10.50;99.90;;;;;;4977130;28;20047;-82
2022/11/02 03:17:19;;;;;;;5.05;0.95;;;10.50;99.90;;;;;;4963895;28;20054;-83
2022/11/02 03:20:00;;;;;;;4.95;0.68;;;10.50;99.90;;;;;;4983093;28;20053;-76
2022/11/02 03:22:37;;;;;;;3.15;0.40;;;10.40;99.90;;;;;;4998916;28;20046;-80
2022/11/02 03:25:20;;;;;;;1.70;0.45;;;10.50;99.90;;;;;;4977455;28;20057;-82
2022/11/02 03:28:04;;;;;;;6.10;0.57;;;10.50;99.90;;;;;;4980299;28;20050;-84
2022/11/02 03:30:36;;;;;;;6.40;0.77;;;10.50;99.90;;;;;;4986341;28;20081;-79
2022/11/02 03:33:20;;;;;;;6.55;1.20;;;10.40;99.90;;;;;;4973922;28;20035;-82
2022/11/02 03:35:57;;;;;;;9.65;2.20;;;10.50;99.90;;;;;;4971889;28;20117;-84
2022/11/02 03:38:48;;;;;;;13.40;2.33;;;10.40;99.90;;;;;;4986894;28;20432;-83
2022/11/02 03:41:16;;;;;;;9.63;1.88;;;10.40;99.90;;;;;;4983137;28;20051;-82
2022/11/02 03:43:45;;;;;;;4.32;0.85;;;10.40;99.90;;;;;;4970041;28;20050;-81
2022/11/02 03:46:13;;;;;;;7.57;1.10;;;10.40;99.90;;;;;;4971025;28;20053;-85
2022/11/02 03:48:43;;;;;;;7.55;2.58;;;10.40;99.90;;;;;;4981972;28;20569;-83
2022/11/02 03:51:12;;;;;;;10.52;2.35;;;10.40;99.90;;;;;;4977861;28;20057;-81
2022/11/02 03:53:47;;;;;;;8.52;2.05;;;10.40;99.90;;;;;;4996281;28;20484;-78
2022/11/02 03:56:38;;;;;;;7.35;2.63;;;10.40;99.90;;;;;;4986400;28;20082;-84
2022/11/02 03:59:04;;;;;;;11.45;1.88;;;10.40;99.90;;;;;;5003644;28;20050;-79
2022/11/02 04:01:31;;;;;;;10.77;1.80;;;10.40;99.90;;;;;;4989628;28;20038;-83
2022/11/02 04:03:56;;;;;;;7.88;2.03;;;10.40;99.90;;;;;;4981818;28;20042;-84
2022/11/02 04:06:24;;;;;;;8.75;2.35;;;10.50;99.90;;;;;;4985531;28;20050;-85
2022/11/02 04:08:50;;;;;;;15.65;2.60;;;10.50;99.90;;;;;;4975075;28;20205;-85
2022/11/02 04:16:44;;;;;;;13.27;2.00;;;10.50;99.90;;;;;;4973659;28;20046;-76
2022/11/02 04:19:28;;;;;;;9.75;1.30;;;10.60;99.90;;;;;;4973367;28;20038;-83
2022/11/02 04:27:25;;;;;;;5.57;1.35;;;10.50;99.90;;;;;;4977329;28;20046;-81
2022/11/02 04:29:51;;;;;;;11.98;2.28;;;10.40;99.90;;;;;;4979214;28;20049;-81
2022/11/02 04:35:02;;;;;;;12.23;2.45;;;10.40;99.90;;;;;;4979030;28;20055;-84
2022/11/02 04:40:12;;;;;;;12.63;2.55;;;10.30;99.90;;;;;;4986669;28;20058;-82
2022/11/02 04:42:37;;;;;;;9.13;2.30;;;10.40;99.90;;;;;;4983977;28;20042;-83
2022/11/02 04:45:03;;;;;;;13.38;3.42;;;10.30;99.90;;;;;;4971432;28;20470;-82
2022/11/02 04:47:29;;;;;;;6.07;1.52;;;10.30;99.90;;;;;;4982587;28;20039;-82
2022/11/02 04:49:55;;;;;;;8.25;2.47;;;10.30;99.90;;;;;;4968430;28;20656;-77
2022/11/02 04:52:20;;;;;;;8.80;1.48;;;10.30;99.90;;;;;;4980350;28;20334;-82
2022/11/02 04:54:46;;;;;;;6.13;1.25;;;10.30;99.90;;;;;;4974528;28;20562;-80
2022/11/02 04:57:11;;;;;;;16.00;1.92;;;10.40;99.90;;;;;;4972692;28;20398;-84
2022/11/02 04:59:37;;;;;;;11.32;2.47;;;10.40;99.90;;;;;;4989271;28;20046;-81
2022/11/02 05:02:03;;;;;;;10.60;1.55;;;10.40;99.90;;;;;;4991563;28;20134;-80
2022/11/02 05:04:28;;;;;;;8.75;1.42;;;10.40;99.90;;;;;;4992648;28;20493;-82
2022/11/02 05:06:54;;;;;;;7.38;1.48;;;10.40;99.90;;;;;;4992200;28;20038;-81
2022/11/02 05:09:19;;;;;;;11.13;2.08;;;10.30;99.90;;;;;;4988718;28;20053;-83
2022/11/02 05:11:45;;;;;;;10.80;2.03;;;10.30;99.90;;;;;;4981408;28;20432;-78
2022/11/02 05:14:11;;;;;;;17.02;2.97;;;10.30;99.90;;;;;;4976226;28;20051;-84
2022/11/02 05:16:36;;;;;;;10.55;3.47;;;10.30;99.90;;;;;;4979543;28;20069;-81
2022/11/02 05:19:02;;;;;;;5.97;1.52;;;10.20;99.90;;;;;;4988368;28;20042;-81
2022/11/02 05:21:28;;;;;;;10.55;2.90;;;10.30;99.90;;;;;;4990723;28;20446;-82
2022/11/02 05:23:53;;;;;;;12.60;2.15;;;10.30;99.90;;;;;;4977488;28;20465;-84
2022/11/02 05:26:19;;;;;;;9.30;1.67;;;10.30;99.90;;;;;;4987811;28;20571;-84
2022/11/02 05:28:45;;;;;;;7.22;3.30;;;10.40;99.90;;;;;;4987912;28;20046;-83
2022/11/02 05:31:10;;;;;;;14.80;2.45;;;10.50;99.90;;;;;;4971085;28;20054;-83
2022/11/02 05:33:36;;;;;;;7.97;2.25;;;10.50;99.90;;;;;;4974492;28;20034;-82
2022/11/02 05:36:02;;;;;;;7.93;1.70;;;10.40;99.90;;;;;;4971267;28;20109;-83
2022/11/02 05:38:28;;;;;;;14.85;3.50;;;10.50;99.90;;;;;;4976210;28;21142;-82
2022/11/02 05:40:56;;;;;;;6.15;2.15;;;10.50;99.90;;;;;;4985510;28;20105;-80
2022/11/02 05:43:21;;;;;;;11.27;2.83;;;10.50;99.90;;;;;;4983053;28;20049;-81
2022/11/02 05:45:55;;;;;;;12.52;2.70;;;10.40;99.90;;;;;;4990580;28;20038;-81
2022/11/02 05:48:23;;;;;;;15.70;2.28;;;10.50;99.90;;;;;;4986433;28;20047;-83
2022/11/02 05:50:48;;;;;;;18.25;3.30;;;10.40;99.90;;;;;;4972238;28;20362;-83
2022/11/02 05:53:15;;;;;;;20.95;5.05;;;10.50;99.90;;;;;;4979506;28;20038;-81
2022/11/02 05:55:40;;;;;;;11.52;1.50;;;10.60;99.90;;;;;;4980348;28;20101;-84
2022/11/02 05:58:06;;;;;;;10.60;2.45;;;10.60;99.90;;;;;;4986352;28;20034;-77
2022/11/02 06:00:32;;;;;;;19.40;2.83;;;10.60;99.90;;;;;;4986287;28;20044;-82
2022/11/02 06:02:58;;;;;;;6.22;2.50;;;10.50;99.90;;;;;;4986657;28;20051;-82
2022/11/02 06:05:24;;;;;;;13.43;2.13;;;10.50;99.90;;;;;;4988516;28;20038;-77
2022/11/02 06:07:50;;;;;;;18.08;3.88;;;10.60;99.90;;;;;;4980025;28;20046;-82
2022/11/02 06:10:17;;;;;;;12.23;3.75;;;10.50;99.90;;;;;;4977085;28;20042;-81
2022/11/02 06:12:43;;;;;;;13.05;3.15;;;10.50;99.90;;;;;;4981035;28;20046;-84
2022/11/02 06:15:10;;;;;;;19.10;2.53;;;10.60;99.90;;;;;;4984728;28;20362;-82
2022/11/02 06:17:39;;;;;;;10.45;2.70;;;10.60;99.90;;;;;;4983980;28;20045;-76
2022/11/02 06:20:06;;;;;;;10.07;1.58;;;10.60;99.90;;;;;;4976811;28;20049;-83
2022/11/02 06:22:41;;;;;;;8.35;2.38;;;10.60;99.90;;;;;;4956308;28;20045;-82
2022/11/02 06:25:07;;;;;;;12.90;3.50;;;10.60;99.90;;;;;;4978041;28;20042;-78
2022/11/02 06:27:33;;;;;;;13.07;3.25;;;10.60;99.90;;;;;;4988047;28;20074;-81
2022/11/02 06:29:58;;;;;;;12.88;3.05;;;10.60;99.90;;;;;;4987090;28;20535;-82
2022/11/02 06:32:24;;;;;;;12.73;2.72;;;10.50;99.90;;;;;;4988285;28;20460;-78
2022/11/02 06:34:50;;;;;;;11.93;2.30;;;10.60;99.90;;;;;;4970421;28;20053;-81
2022/11/02 06:37:15;;;;;;;16.88;3.05;;;10.50;99.90;;;;;;4984679;28;20122;-80
2022/11/02 06:39:41;;;;;;;12.35;2.15;;;10.50;99.90;;;;;;4993209;28;20510;-81
2022/11/02 06:42:07;;;;;;;21.45;2.55;;;10.50;99.90;;;;;;4978184;28;20413;-81
2022/11/02 06:44:32;;;;;;;13.82;2.42;;;10.60;99.90;;;;;;4980298;28;20124;-79
2022/11/02 06:46:58;;;;;;;10.90;2.00;;;10.60;99.90;;;;;;4987424;28;20050;-78
2022/11/02 06:49:24;;;;;;;9.80;2.15;;;10.60;99.90;;;;;;4979194;28;20078;-80
2022/11/02 06:51:50;;;;;;;18.95;3.17;;;10.60;99.90;;;;;;4988946;28;20065;-81
2022/11/02 06:54:15;;;;;;;9.10;2.08;;;10.60;99.90;;;;;;4977686;28;20654;-81
2022/11/02 06:56:41;;;;;;;16.33;2.35;;;10.70;99.90;;;;;;4983701;28;20045;-83
2022/11/02 06:59:07;;;;;;;14.55;2.40;;;10.70;99.90;;;;;;4987505;28;20078;-83
2022/11/02 07:01:33;;;;;;;11.45;2.45;;;10.70;99.90;;;;;;4978299;28;20050;-82
2022/11/02 07:04:00;;;;;;;12.60;2.85;;;10.70;99.90;;;;;;4973695;28;20618;-82
2022/11/02 07:06:26;;;;;;;11.23;1.80;;;10.60;99.90;;;;;;4968997;28;20070;-81
2022/11/02 07:08:51;;;;;;;10.05;1.20;;;10.50;99.90;;;;;;4987130;28;20074;-78
2022/11/02 07:11:17;;;;;;;6.88;1.48;;;10.70;99.90;;;;;;4995275;28;20515;-81
2022/11/02 07:13:43;;;;;;;6.88;0.65;;;10.60;99.90;;;;;;4968142;28;20038;-82
2022/11/02 07:16:09;;;;;;;4.72;1.08;;;10.50;99.90;;;;;;4984403;28;20109;-81
2022/11/02 07:18:35;;;;;;;5.25;1.60;;;10.50;99.90;;;;;;4986758;28;20535;-81
2022/11/02 07:21:01;;;;;;;4.30;1.13;;;10.40;99.90;;;;;;4985865;28;20126;-80
2022/11/02 07:23:27;;;;;;;9.50;2.22;;;10.40;99.90;;;;;;4982367;28;20054;-80
2022/11/02 07:25:53;;;;;;;5.97;1.83;;;10.30;99.90;;;;;;4986358;28;20046;-81
2022/11/02 07:28:19;;;;;;;6.00;0.95;;;10.40;99.90;;;;;;4974583;28;20053;-81
2022/11/02 07:30:44;;;;;;;4.32;1.00;;;10.30;99.90;;;;;;4978402;28;20042;-84
2022/11/02 07:33:10;;;;;;;5.55;1.33;;;10.30;99.90;;;;;;4983831;28;20465;-85
2022/11/02 07:35:36;;;;;;;9.48;1.70;;;10.30;99.90;;;;;;4980418;28;20048;-82
2022/11/02 07:38:04;;;;;;;4.72;1.20;;;10.30;99.90;;;;;;4978298;28;20118;-83
2022/11/02 07:40:32;;;;;;;8.45;1.60;;;10.30;99.90;;;;;;4975861;28;20053;-82
2022/11/02 07:42:58;;;;;;;7.85;1.65;;;10.40;99.90;;;;;;4975796;28;20103;-84
2022/11/02 07:45:24;;;;;;;3.50;1.02;;;10.30;99.90;;;;;;4957393;28;20077;-81
2022/11/02 07:47:50;;;;;;;34.10;2.92;;;10.30;99.90;;;;;;4981797;28;20516;-83
2022/11/02 07:50:21;;;;;;;5.20;2.03;;;10.40;99.90;;;;;;4984035;28;20038;-83
2022/11/02 07:52:55;;;;;;;9.77;1.00;;;10.40;99.90;;;;;;4985848;28;20461;-82
2022/11/02 07:55:23;;;;;;;4.20;0.95;;;10.30;99.90;;;;;;4985385;28;20077;-84
2022/11/02 07:58:01;;;;;;;8.52;0.77;;;10.50;99.90;;;;;;4969625;28;20426;-79
2022/11/02 08:00:29;;;;;;;4.18;0.60;;;10.60;99.90;;;;;;4967655;28;20050;-76
2022/11/02 08:02:59;;;;;;;16.55;2.15;;;10.70;99.90;;;;;;4981705;28;20058;-79
2022/11/02 08:05:26;;;;;;;3.58;0.80;;;10.80;99.90;;;;;;4980710;28;20781;-80
2022/11/02 08:08:00;;;;;;;14.82;1.77;;;10.80;99.90;;;;;;4973441;28;20156;-82
2022/11/02 08:10:27;;;;;;;14.07;2.30;;;10.80;99.90;;;;;;4985323;28;20097;-82
2022/11/02 08:12:54;;;;;;;6.57;1.20;;;10.80;99.90;;;;;;4976513;28;20450;-79
2022/11/02 08:15:19;;;;;;;9.70;2.35;;;10.70;99.90;;;;;;4984680;28;20054;-79
2022/11/02 08:17:45;;;;;;;14.93;2.15;;;10.70;99.90;;;;;;4985266;28;20053;-80
2022/11/02 08:20:11;;;;;;;7.20;1.17;;;10.70;99.90;;;;;;4971520;28;20058;-76
2022/11/02 08:22:38;;;;;;;12.88;1.48;;;10.80;99.90;;;;;;4980511;28;20220;-77
2022/11/02 08:25:04;;;;;;;5.22;1.23;;;10.90;99.90;;;;;;4974054;28;20050;-79
2022/11/02 08:27:29;;;;;;;9.50;1.50;;;10.90;99.90;;;;;;4969119;28;20469;-79
2022/11/02 08:29:55;;;;;;;7.80;1.67;;;10.80;99.90;;;;;;4976273;28;20051;-79
2022/11/02 08:32:21;;;;;;;9.75;1.77;;;10.80;99.90;;;;;;4977020;28;20440;-80
2022/11/02 08:34:46;;;;;;;20.70;3.15;;;10.90;99.90;;;;;;4984888;28;20374;-83
2022/11/02 08:37:12;;;;;;;10.48;1.35;;;10.90;99.90;;;;;;4984675;28;20464;-79
2022/11/02 08:39:38;;;;;;;7.18;1.00;;;10.90;99.90;;;;;;4981460;28;20038;-82
2022/11/02 08:42:03;;;;;;;13.70;2.72;;;10.80;99.90;;;;;;4983585;28;20100;-81
2022/11/02 08:44:29;;;;;;;10.77;1.92;;;11.00;99.90;;;;;;4980867;28;20043;-79
2022/11/02 08:46:55;;;;;;;7.72;2.10;;;11.10;99.90;;;;;;4980575;28;20603;-82
2022/11/02 08:49:21;;;;;;;5.38;2.10;;;11.30;99.90;;;;;;4982928;28;20233;-75
2022/11/02 08:51:47;;;;;;;10.50;2.83;;;11.30;99.90;;;;;;4977263;28;20419;-77
2022/11/02 08:54:13;;;;;;;4.45;1.40;;;11.40;99.90;;;;;;4970876;28;20105;-82
2022/11/02 08:56:38;;;;;;;12.10;2.78;;;11.40;99.90;;;;;;4986695;28;20090;-80
2022/11/02 08:59:04;;;;;;;14.43;3.58;;;11.40;99.90;;;;;;4985578;28;20046;-80
2022/11/02 09:01:30;;;;;;;7.28;1.60;;;11.50;99.90;;;;;;4981129;28;20058;-81
2022/11/02 09:03:55;;;;;;;11.98;2.03;;;11.50;99.90;;;;;;4967131;28;20106;-78
2022/11/02 09:06:21;;;;;;;11.43;2.75;;;11.60;99.90;;;;;;4972549;28;20050;-80
2022/11/02 09:08:47;;;;;;;12.07;2.28;;;11.60;99.90;;;;;;4979425;28;20044;-75
2022/11/02 09:11:13;;;;;;;17.45;4.60;;;11.80;99.90;;;;;;4983886;28;20489;-80
2022/11/02 09:13:38;;;;;;;12.48;2.60;;;11.80;99.90;;;;;;4966871;28;20097;-77
2022/11/02 09:16:04;;;;;;;17.35;2.30;;;11.90;99.90;;;;;;4973721;28;20484;-80
2022/11/02 09:18:30;;;;;;;7.88;1.73;;;11.90;99.90;;;;;;4974079;28;20057;-79
2022/11/02 09:20:59;;;;;;;11.35;2.63;;;12.00;99.90;;;;;;4964803;28;20465;-76
2022/11/02 09:23:25;;;;;;;13.48;1.90;;;12.10;99.90;;;;;;4967069;28;20241;-80
2022/11/02 09:25:51;;;;;;;10.50;1.75;;;12.20;99.90;;;;;;4980770;28;20053;-78
2022/11/02 09:28:16;;;;;;;6.88;1.73;;;12.30;99.90;;;;;;4975588;28;20039;-80
2022/11/02 09:30:42;;;;;;;10.25;1.85;;;12.40;99.90;;;;;;4965566;28;20482;-75
2022/11/02 09:33:09;;;;;;;10.10;2.95;;;12.50;99.90;;;;;;4973029;28;20031;-75
2022/11/02 09:35:39;;;;;;;10.55;1.80;;;12.50;99.90;;;;;;4978988;28;20076;-75
2022/11/02 09:38:05;;;;;;;23.75;4.38;;;12.70;99.90;;;;;;4983456;28;20055;-76
2022/11/02 09:40:57;;;;;;;7.13;1.67;;;12.80;99.90;;;;;;4968199;28;20039;-75
2022/11/02 09:43:41;;;;;;;7.68;1.33;;;12.90;99.90;;;;;;4985964;28;20046;-75
2022/11/02 09:46:16;;;;;;;6.50;1.27;;;13.00;99.90;;;;;;4964476;28;20038;-76
2022/11/02 09:48:51;;;;;;;9.90;2.05;;;13.00;99.90;;;;;;4984093;28;20042;-77
2022/11/02 09:51:21;;;;;;;10.93;1.70;;;12.90;99.90;;;;;;4987684;28;20041;-77
2022/11/02 09:54:10;;;;;;;11.07;2.22;;;13.00;99.90;;;;;;4971179;28;20583;-76
2022/11/02 09:56:36;;;;;;;9.05;2.45;;;12.90;99.90;;;;;;4986440;28;20143;-76
2022/11/02 09:59:15;;;;;;;9.10;2.58;;;12.80;99.90;;;;;;4988101;28;20543;-76
2022/11/02 10:01:59;;;;;;;14.13;1.90;;;12.90;99.90;;;;;;4984355;28;20051;-75
2022/11/02 10:04:40;;;;;;;14.02;1.90;;;12.80;99.90;;;;;;4985004;28;20510;-76
2022/11/02 10:07:13;;;;;;;8.88;2.33;;;13.00;99.90;;;;;;4989136;28;20167;-76
2022/11/02 10:09:57;;;;;;;8.98;1.88;;;13.10;99.90;;;;;;4986754;28;20038;-77
2022/11/02 10:12:36;;;;;;;7.40;1.75;;;13.20;99.90;;;;;;4969599;28;20050;-76
2022/11/02 10:15:09;;;;;;;14.87;2.97;;;13.20;99.90;;;;;;4969487;28;20047;-75
2022/11/02 10:17:38;;;;;;;13.43;2.42;;;13.10;99.90;;;;;;4968575;28;20410;-76
2022/11/02 10:20:30;;;;;;;9.73;1.90;;;13.10;99.90;;;;;;4975927;28;20513;-76
2022/11/02 10:23:05;;;;;;;15.05;2.30;;;13.00;99.90;;;;;;4988001;28;20054;-76
2022/11/02 10:25:31;;;;;;;9.88;1.67;;;13.10;99.90;;;;;;4978545;28;20039;-76
2022/11/02 10:28:19;;;;;;;12.93;3.55;;;13.10;99.90;;;;;;4967210;28;20050;-77
2022/11/02 10:30:45;;;;;;;9.43;2.00;;;13.00;99.90;;;;;;4966975;28;20143;-76
2022/11/02 10:33:17;;;;;;;11.10;1.88;;;13.00;99.90;;;;;;4969549;28;20058;-76
2022/11/02 10:36:00;;;;;;;9.10;1.55;;;13.10;99.90;;;;;;4989771;28;20061;-76
2022/11/02 10:39:01;;;;;;;13.13;1.52;;;13.10;99.90;;;;;;4970781;28;20054;-76
2022/11/02 10:41:30;;;;;;;9.90;2.50;;;13.20;99.90;;;;;;4985561;28;20054;-77
2022/11/02 10:44:26;;;;;;;9.05;1.80;;;13.30;99.90;;;;;;4981908;28;20182;-76
2022/11/02 10:47:12;;;;;;;9.80;1.15;;;13.10;99.90;;;;;;4968874;28;20114;-76
2022/11/02 10:49:50;;;;;;;14.18;1.52;;;12.90;99.90;;;;;;4983223;28;20043;-73
2022/11/02 10:52:17;;;;;;;8.82;2.30;;;12.80;99.90;;;;;;4976562;28;20567;-72
2022/11/02 10:54:43;;;;;;;12.02;1.83;;;12.70;99.90;;;;;;4977506;28;20085;-73
2022/11/02 10:57:12;;;;;;;9.63;2.47;;;12.70;99.90;;;;;;4981408;28;20584;-71
2022/11/02 10:59:38;;;;;;;8.32;1.85;;;12.70;99.90;;;;;;4985717;28;20043;-72
2022/11/02 11:02:13;;;;;;;17.73;2.50;;;12.70;99.90;;;;;;4984816;28;20049;-72
2022/11/02 11:04:40;;;;;;;9.45;1.83;;;12.80;99.90;;;;;;4982916;28;20046;-72
2022/11/02 11:07:11;;;;;;;8.07;1.88;;;12.70;99.90;;;;;;4981162;28;20118;-72
2022/11/02 11:09:53;;;;;;;7.05;1.95;;;12.90;99.90;;;;;;4984924;28;20042;-75
2022/11/02 11:12:37;;;;;;;8.85;2.45;;;12.90;99.90;;;;;;4980623;28;20069;-72
2022/11/02 11:15:05;;;;;;;10.93;1.47;;;13.10;99.90;;;;;;4962015;28;1093256;-72
2022/11/02 11:17:31;;;;;;;10.45;2.30;;;13.30;99.90;;;;;;4968774;28;20705;-72
2022/11/02 11:19:57;;;;;;;12.38;2.58;;;13.50;99.90;;;;;;4967363;28;20110;-71
2022/11/02 11:22:35;;;;;;;8.70;1.70;;;13.60;99.90;;;;;;4978819;28;20073;-73
2022/11/02 11:25:21;;;;;;;9.98;2.35;;;13.60;99.90;;;;;;4983492;28;20398;-72
2022/11/02 11:27:49;;;;;;;4.80;0.90;;;13.70;99.90;;;;;;4982450;28;20074;-71
2022/11/02 11:30:28;;;;;;;10.82;1.10;;;13.70;99.90;;;;;;4969623;28;20050;-72
2022/11/02 11:32:56;;;;;;;5.82;1.40;;;13.60;99.90;;;;;;4989842;28;20077;-72
2022/11/02 11:35:24;;;;;;;3.67;1.08;;;13.60;99.90;;;;;;4981100;28;20084;-73
2022/11/02 11:37:55;;;;;;;10.20;1.50;;;13.60;99.90;;;;;;4966935;28;20074;-73
2022/11/02 11:40:21;;;;;;;9.38;1.63;;;13.70;99.90;;;;;;4970813;28;20078;-72
2022/11/02 11:42:53;;;;;;;8.20;1.88;;;13.60;99.90;;;;;;4984193;28;20042;-73
2022/11/02 11:45:25;;;;;;;7.13;2.28;;;13.60;99.90;;;;;;4972343;28;20405;-72
2022/11/02 11:47:59;;;;;;;9.35;1.45;;;13.70;99.90;;;;;;4986033;28;20050;-73
2022/11/02 11:50:25;;;;;;;8.95;1.95;;;13.70;99.90;;;;;;4985702;28;20377;-72
2022/11/02 11:53:17;;;;;;;11.68;1.20;;;13.60;99.90;;;;;;4970020;28;20078;-72
2022/11/02 11:55:52;;;;;;;10.13;1.60;;;13.70;99.90;;;;;;4982854;28;20389;-72
2022/11/02 11:58:25;;;;;;;7.95;1.55;;;13.60;99.90;;;;;;4985434;28;20035;-72
2022/11/02 12:01:03;;;;;;;8.38;2.85;;;13.70;99.90;;;;;;4984786;28;20097;-72
2022/11/02 12:03:29;;;;;;;13.45;1.02;;;13.80;99.90;;;;;;4984079;28;20038;-73
2022/11/02 12:06:26;;;;;;;8.25;2.28;;;13.70;99.90;;;;;;4982861;28;20054;-72
2022/11/02 12:09:10;;;;;;;13.95;2.72;;;13.80;99.90;;;;;;4947311;28;20050;-73
2022/11/02 12:11:41;;;;;;;6.45;1.40;;;14.00;99.90;;;;;;4966233;28;20046;-74
2022/11/02 12:14:07;;;;;;;8.35;2.03;;;14.00;99.90;;;;;;4978655;28;20110;-72
2022/11/02 12:17:01;;;;;;;8.48;1.95;;;14.10;99.90;;;;;;4968892;28;20127;-72
2022/11/02 12:19:29;;;;;;;10.63;2.17;;;14.10;99.90;;;;;;4970246;28;20609;-72
2022/11/02 12:22:13;;;;;;;5.82;1.35;;;14.00;99.90;;;;;;4969983;28;20054;-72
2022/11/02 12:24:59;;;;;;;7.30;1.92;;;14.00;99.90;;;;;;4974526;28;20129;-72
2022/11/02 12:27:51;;;;;;;9.15;1.98;;;13.70;99.90;;;;;;4985940;28;20046;-73
2022/11/02 12:30:19;;;;;;;16.67;3.58;;;13.60;99.90;;;;;;4979880;28;20445;-71
2022/11/02 12:33:20;;;;;;;14.63;2.92;;;13.50;99.90;;;;;;4973321;28;20046;-73
2022/11/02 12:36:07;;;;;;;12.13;2.17;;;13.60;99.90;;;;;;4939478;28;20469;-72
2022/11/02 12:38:56;;;;;;;11.07;1.45;;;13.70;99.90;;;;;;4973275;28;20516;-72
2022/11/02 12:41:37;;;;;;;12.82;2.95;;;13.80;99.90;;;;;;4987276;28;20125;-73
2022/11/02 12:44:39;;;;;;;7.50;1.58;;;13.90;99.90;;;;;;4971899;28;20070;-72
2022/11/02 12:47:27;;;;;;;8.35;1.92;;;14.10;99.90;;;;;;4967008;28;20386;-73
2022/11/02 12:50:33;;;;;;;9.90;1.58;;;14.10;99.90;;;;;;4981538;28;20050;-72
2022/11/02 12:53:14;;;;;;;11.27;3.00;;;14.10;99.90;;;;;;4967558;28;20410;-72
2022/11/02 12:55:44;;;;;;;7.55;2.20;;;13.80;99.90;;;;;;4967188;28;20500;-73
2022/11/02 12:58:15;;;;;;;;;;;13.60;99.90;;;;;;4966620;28;20429;-72
2022/11/02 13:00:42;;;;;;;;;;;13.60;99.90;;;;;;4967763;28;19980;-73
2022/11/02 13:03:25;;;;;;;8.68;1.98;;;13.70;99.90;;;;;;4956627;28;19936;-73
2022/11/02 13:05:56;;;;;;;10.73;1.10;;;13.60;99.90;;;;;;4980494;28;20038;-72
2022/11/02 13:08:31;;;;;;;10.85;2.72;;;13.80;99.90;;;;;;4979408;28;20050;-71
2022/11/02 13:11:00;;;;;;;11.32;2.22;;;13.80;99.90;;;;;;4974455;28;20058;-72
2022/11/02 13:13:42;;;;;;;13.02;2.53;;;13.90;99.90;;;;;;4977808;28;20624;-71
2022/11/02 13:16:09;;;;;;;8.90;1.10;;;13.80;99.90;;;;;;4982184;28;20455;-73
2022/11/02 13:18:53;;;;;;;15.63;2.40;;;13.70;99.90;;;;;;4982977;28;20298;-73